sensor_id;sensor_type;location;lat;lon;timestamp;pressure;altitude;pressure_sealevel;temperature;humidity
71567;BME280;59403;47.456;19.120;2022-10-13T00:00:56;101234.72;;;10.34;100.00
71567;BME280;59403;47.456;19.120;2022-10-13T00:03:23;101240.00;;;10.34;100.00
71567;BME280;59403;47.456;19.120;2022-10-13T00:05:51;101241.72;;;10.35;100.00
71567;BME280;59403;47.456;19.120;2022-10-13T00:08:20;101249.66;;;10.35;100.00
71567;BME280;59403;47.456;19.120;2022-10-13T00:10:52;101244.59;;;10.32;100.00
71567;BME280;59403;47.456;19.120;2022-10-13T00:13:19;101248.22;;;10.21;100.00
71567;BME280;59403;47.456;19.120;2022-10-13T00:15:47;101249.00;;;10.12;100.00
71567;BME280;59403;47.456;19.120;2022-10-13T00:18:14;101244.66;;;10.11;100.00
71567;BME280;59403;47.456;19.120;2022-10-13T00:20:44;101244.81;;;10.10;100.00
71567;BME280;59403;47.456;19.120;2022-10-13T00:23:11;101244.53;;;10.13;100.00
71567;BME280;59403;47.456;19.120;2022-10-13T00:25:40;101237.84;;;10.09;100.00
71567;BME280;59403;47.456;19.120;2022-10-13T00:28:10;101243.84;;;10.11;100.00
71567;BME280;59403;47.456;19.120;2022-10-13T00:30:37;101238.78;;;10.08;100.00
71567;BME280;59403;47.456;19.120;2022-10-13T00:33:04;101243.97;;;10.09;100.00
71567;BME280;59403;47.456;19.120;2022-10-13T00:35:32;101241.56;;;10.06;100.00
71567;BME280;59403;47.456;19.120;2022-10-13T00:37:59;101240.34;;;10.10;100.00
71567;BME280;59403;47.456;19.120;2022-10-13T00:40:26;101239.38;;;10.11;100.00
71567;BME280;59403;47.456;19.120;2022-10-13T00:42:53;101243.00;;;10.10;100.00
71567;BME280;59403;47.456;19.120;2022-10-13T00:45:25;101249.16;;;10.11;100.00
71567;BME280;59403;47.456;19.120;2022-10-13T00:47:56;101244.19;;;10.06;100.00
71567;BME280;59403;47.456;19.120;2022-10-13T00:50:27;101240.16;;;10.02;100.00
71567;BME280;59403;47.456;19.120;2022-10-13T00:52:55;101239.19;;;10.03;100.00
71567;BME280;59403;47.456;19.120;2022-10-13T00:55:25;101236.81;;;10.00;100.00
71567;BME280;59403;47.456;19.120;2022-10-13T00:57:53;101239.44;;;10.00;100.00
71567;BME280;59403;47.456;19.120;2022-10-13T01:00:24;101243.59;;;9.93;100.00
71567;BME280;59403;47.456;19.120;2022-10-13T01:02:51;101236.75;;;9.91;100.00
71567;BME280;59403;47.456;19.120;2022-10-13T01:05:19;101235.78;;;9.92;100.00
71567;BME280;59403;47.456;19.120;2022-10-13T01:07:47;101234.53;;;9.96;100.00
71567;BME280;59403;47.456;19.120;2022-10-13T01:10:16;101235.12;;;9.99;100.00
71567;BME280;59403;47.456;19.120;2022-10-13T01:12:59;101242.63;;;9.94;100.00
71567;BME280;59403;47.456;19.120;2022-10-13T01:15:34;101242.59;;;9.85;100.00
71567;BME280;59403;47.456;19.120;2022-10-13T01:18:12;101237.94;;;9.77;100.00
71567;BME280;59403;47.456;19.120;2022-10-13T01:27:13;101242.97;;;9.80;100.00
71567;BME280;59403;47.456;19.120;2022-10-13T01:30:09;101248.13;;;9.82;100.00
71567;BME280;59403;47.456;19.120;2022-10-13T01:32:57;101248.69;;;9.85;100.00
71567;BME280;59403;47.456;19.120;2022-10-13T01:35:35;101239.94;;;9.85;100.00
71567;BME280;59403;47.456;19.120;2022-10-13T01:38:09;101238.09;;;9.85;100.00
71567;BME280;59403;47.456;19.120;2022-10-13T01:40:42;101245.47;;;9.82;100.00
71567;BME280;59403;47.456;19.120;2022-10-13T01:43:15;101236.06;;;9.68;100.00
71567;BME280;59403;47.456;19.120;2022-10-13T01:45:50;101239.12;;;9.64;100.00
71567;BME280;59403;47.456;19.120;2022-10-13T01:48:19;101236.63;;;9.62;100.00
71567;BME280;59403;47.456;19.120;2022-10-13T01:50:47;101239.97;;;9.64;100.00
71567;BME280;59403;47.456;19.120;2022-10-13T01:53:17;101233.13;;;9.62;100.00
71567;BME280;59403;47.456;19.120;2022-10-13T01:55:49;101225.75;;;9.65;100.00
71567;BME280;59403;47.456;19.120;2022-10-13T01:58:16;101219.06;;;9.61;100.00
71567;BME280;59403;47.456;19.120;2022-10-13T02:04:25;101227.84;;;9.62;100.00
71567;BME280;59403;47.456;19.120;2022-10-13T02:07:00;101219.06;;;9.61;100.00
71567;BME280;59403;47.456;19.120;2022-10-13T02:09:34;101219.06;;;9.61;100.00
71567;BME280;59403;47.456;19.120;2022-10-13T02:12:08;101219.91;;;9.62;100.00
71567;BME280;59403;47.456;19.120;2022-10-13T02:14:41;101215.00;;;9.57;100.00
71567;BME280;59403;47.456;19.120;2022-10-13T02:17:10;101215.00;;;9.57;100.00
71567;BME280;59403;47.456;19.120;2022-10-13T02:19:39;101209.72;;;9.57;100.00
71567;BME280;59403;47.456;19.120;2022-10-13T02:22:07;101211.12;;;9.61;100.00
71567;BME280;59403;47.456;19.120;2022-10-13T02:24:37;101218.81;;;9.64;100.00
71567;BME280;59403;47.456;19.120;2022-10-13T02:27:05;101222.12;;;9.66;100.00
71567;BME280;59403;47.456;19.120;2022-10-13T02:29:33;101219.63;;;9.65;100.00
71567;BME280;59403;47.456;19.120;2022-10-13T02:32:00;101228.91;;;9.59;100.00
71567;BME280;59403;47.456;19.120;2022-10-13T02:34:27;101223.25;;;9.64;100.00
71567;BME280;59403;47.456;19.120;2022-10-13T02:36:55;101223.25;;;9.64;100.00
71567;BME280;59403;47.456;19.120;2022-10-13T02:39:22;101219.06;;;9.61;100.00
71567;BME280;59403;47.456;19.120;2022-10-13T02:41:50;101211.97;;;9.62;100.00
71567;BME280;59403;47.456;19.120;2022-10-13T02:44:17;101216.28;;;9.63;100.00
71567;BME280;59403;47.456;19.120;2022-10-13T02:46:43;101218.09;;;9.62;100.00
71567;BME280;59403;47.456;19.120;2022-10-13T02:49:10;101216.41;;;9.61;100.00
71567;BME280;59403;47.456;19.120;2022-10-13T02:51:37;101216.81;;;9.57;100.00
71567;BME280;59403;47.456;19.120;2022-10-13T02:54:05;101220.41;;;9.56;100.00
71567;BME280;59403;47.456;19.120;2022-10-13T02:56:33;101217.19;;;9.52;100.00
71567;BME280;59403;47.456;19.120;2022-10-13T02:58:59;101230.41;;;9.52;100.00
71567;BME280;59403;47.456;19.120;2022-10-13T03:01:26;101232.72;;;9.46;100.00
71567;BME280;59403;47.456;19.120;2022-10-13T03:03:53;101227.72;;;9.43;100.00
71567;BME280;59403;47.456;19.120;2022-10-13T03:06:20;101228.56;;;9.43;100.00
71567;BME280;59403;47.456;19.120;2022-10-13T03:08:47;101221.25;;;9.36;100.00
71567;BME280;59403;47.456;19.120;2022-10-13T03:11:15;101224.75;;;9.36;100.00
71567;BME280;59403;47.456;19.120;2022-10-13T03:13:42;101228.94;;;9.39;100.00
71567;BME280;59403;47.456;19.120;2022-10-13T03:16:09;101225.69;;;9.35;100.00
71567;BME280;59403;47.456;19.120;2022-10-13T03:18:36;101224.75;;;9.36;100.00
71567;BME280;59403;47.456;19.120;2022-10-13T03:21:04;101230.53;;;9.30;100.00
71567;BME280;59403;47.456;19.120;2022-10-13T03:23:31;101221.19;;;9.26;100.00
71567;BME280;59403;47.456;19.120;2022-10-13T03:25:59;101223.00;;;9.26;100.00
71567;BME280;59403;47.456;19.120;2022-10-13T03:28:27;101219.53;;;9.25;100.00
71567;BME280;59403;47.456;19.120;2022-10-13T03:30:59;101219.78;;;9.22;100.00
71567;BME280;59403;47.456;19.120;2022-10-13T03:33:26;101218.22;;;9.19;100.00
71567;BME280;59403;47.456;19.120;2022-10-13T03:35:53;101222.56;;;9.21;100.00
71567;BME280;59403;47.456;19.120;2022-10-13T03:38:20;101226.87;;;9.22;100.00
71567;BME280;59403;47.456;19.120;2022-10-13T03:40:47;101219.34;;;9.17;100.00
71567;BME280;59403;47.456;19.120;2022-10-13T03:43:14;101218.97;;;9.10;100.00
71567;BME280;59403;47.456;19.120;2022-10-13T03:45:42;101220.22;;;9.06;100.00
71567;BME280;59403;47.456;19.120;2022-10-13T03:48:09;101217.44;;;9.08;100.00
71567;BME280;59403;47.456;19.120;2022-10-13T03:50:36;101214.81;;;9.08;100.00
71567;BME280;59403;47.456;19.120;2022-10-13T03:53:03;101213.25;;;9.05;100.00
71567;BME280;59403;47.456;19.120;2022-10-13T03:55:30;101211.56;;;9.04;100.00
71567;BME280;59403;47.456;19.120;2022-10-13T03:57:57;101211.00;;;9.01;100.00
71567;BME280;59403;47.456;19.120;2022-10-13T04:00:24;101213.19;;;8.96;100.00
71567;BME280;59403;47.456;19.120;2022-10-13T04:02:52;101211.25;;;8.98;100.00
71567;BME280;59403;47.456;19.120;2022-10-13T04:05:19;101211.47;;;8.95;100.00
71567;BME280;59403;47.456;19.120;2022-10-13T04:07:46;101213.44;;;8.93;100.00
71567;BME280;59403;47.456;19.120;2022-10-13T04:10:13;101213.31;;;8.94;100.00
71567;BME280;59403;47.456;19.120;2022-10-13T04:12:41;101208.38;;;8.90;100.00
71567;BME280;59403;47.456;19.120;2022-10-13T04:15:09;101210.09;;;8.91;100.00
71567;BME280;59403;47.456;19.120;2022-10-13T04:17:36;101203.09;;;8.90;100.00
71567;BME280;59403;47.456;19.120;2022-10-13T04:20:05;101200.84;;;8.85;100.00
71567;BME280;59403;47.456;19.120;2022-10-13T04:22:32;101209.97;;;8.81;100.00
71567;BME280;59403;47.456;19.120;2022-10-13T04:24:59;101202.31;;;8.78;100.00
71567;BME280;59403;47.456;19.120;2022-10-13T04:27:26;101204.69;;;8.81;100.00
71567;BME280;59403;47.456;19.120;2022-10-13T04:29:53;101206.87;;;8.76;100.00
71567;BME280;59403;47.456;19.120;2022-10-13T04:32:20;101202.31;;;8.78;100.00
71567;BME280;59403;47.456;19.120;2022-10-13T04:34:46;101198.56;;;8.81;100.00
71567;BME280;59403;47.456;19.120;2022-10-13T04:37:15;101197.88;;;8.79;100.00
71567;BME280;59403;47.456;19.120;2022-10-13T04:39:42;101202.44;;;8.77;100.00
71567;BME280;59403;47.456;19.120;2022-10-13T04:42:08;101209.53;;;8.76;100.00
71567;BME280;59403;47.456;19.120;2022-10-13T04:44:35;101203.66;;;8.73;100.00
71567;BME280;59403;47.456;19.120;2022-10-13T04:47:02;101206.87;;;8.76;100.00
71567;BME280;59403;47.456;19.120;2022-10-13T04:49:29;101202.22;;;8.69;100.00
71567;BME280;59403;47.456;19.120;2022-10-13T04:51:56;101210.28;;;8.67;100.00
71567;BME280;59403;47.456;19.120;2022-10-13T04:54:27;101211.25;;;8.66;100.00
71567;BME280;59403;47.456;19.120;2022-10-13T04:56:54;101214.47;;;8.70;100.00
71567;BME280;59403;47.456;19.120;2022-10-13T04:59:21;101211.97;;;8.68;100.00
71567;BME280;59403;47.456;19.120;2022-10-13T05:01:48;101207.63;;;8.67;100.00
71567;BME280;59403;47.456;19.120;2022-10-13T05:04:15;101213.88;;;8.66;100.00
71567;BME280;59403;47.456;19.120;2022-10-13T05:06:42;101213.28;;;8.63;100.00
71567;BME280;59403;47.456;19.120;2022-10-13T05:09:13;101215.09;;;8.62;100.00
71567;BME280;59403;47.456;19.120;2022-10-13T05:11:42;101216.78;;;8.63;100.00
71567;BME280;59403;47.456;19.120;2022-10-13T05:14:09;101213.28;;;8.63;100.00
71567;BME280;59403;47.456;19.120;2022-10-13T05:16:36;101212.31;;;8.64;100.00
71567;BME280;59403;47.456;19.120;2022-10-13T05:19:03;101213.66;;;8.58;100.00
71567;BME280;59403;47.456;19.120;2022-10-13T05:21:30;101211.12;;;8.57;100.00
71567;BME280;59403;47.456;19.120;2022-10-13T05:23:57;101212.84;;;8.58;100.00
71567;BME280;59403;47.456;19.120;2022-10-13T05:26:26;101210.91;;;8.60;100.00
71567;BME280;59403;47.456;19.120;2022-10-13T05:28:54;101210.06;;;8.59;100.00
71567;BME280;59403;47.456;19.120;2022-10-13T05:31:23;101207.03;;;8.64;100.00
71567;BME280;59403;47.456;19.120;2022-10-13T05:33:51;101211.25;;;8.66;100.00
71567;BME280;59403;47.456;19.120;2022-10-13T05:36:19;101207.03;;;8.64;100.00
71567;BME280;59403;47.456;19.120;2022-10-13T05:38:49;101206.81;;;8.67;100.00
71567;BME280;59403;47.456;19.120;2022-10-13T05:41:16;101201.16;;;8.71;100.00
71567;BME280;59403;47.456;19.120;2022-10-13T05:43:43;101209.06;;;8.71;100.00
71567;BME280;59403;47.456;19.120;2022-10-13T05:46:11;101201.47;;;8.78;100.00
71567;BME280;59403;47.456;19.120;2022-10-13T05:48:38;101204.69;;;8.81;100.00
71567;BME280;59403;47.456;19.120;2022-10-13T05:51:09;101209.25;;;8.79;100.00
71567;BME280;59403;47.456;19.120;2022-10-13T05:53:39;101214.53;;;8.79;100.00
71567;BME280;59403;47.456;19.120;2022-10-13T05:56:10;101216.13;;;8.82;100.00
71567;BME280;59403;47.456;19.120;2022-10-13T05:58:40;101213.09;;;8.86;100.00
71567;BME280;59403;47.456;19.120;2022-10-13T06:01:13;101219.41;;;8.95;100.00
71567;BME280;59403;47.456;19.120;2022-10-13T06:03:41;101226.37;;;8.96;100.00
71567;BME280;59403;47.456;19.120;2022-10-13T06:06:10;101228.62;;;9.00;100.00
71567;BME280;59403;47.456;19.120;2022-10-13T06:08:37;101234.38;;;9.05;100.00
71567;BME280;59403;47.456;19.120;2022-10-13T06:11:04;101230.25;;;9.12;100.00
71567;BME280;59403;47.456;19.120;2022-10-13T06:13:32;101236.13;;;9.16;100.00
71567;BME280;59403;47.456;19.120;2022-10-13T06:16:14;101234.78;;;9.22;100.00
71567;BME280;59403;47.456;19.120;2022-10-13T06:18:43;101238.47;;;9.30;100.00
71567;BME280;59403;47.456;19.120;2022-10-13T06:21:10;101238.91;;;9.35;100.00
71567;BME280;59403;47.456;19.120;2022-10-13T06:23:37;101247.88;;;9.44;100.00
71567;BME280;59403;47.456;19.120;2022-10-13T06:26:05;101244.59;;;9.51;100.00
71567;BME280;59403;47.456;19.120;2022-10-13T06:28:32;101245.75;;;9.58;100.00
71567;BME280;59403;47.456;19.120;2022-10-13T06:31:02;101245.12;;;9.66;100.00
71567;BME280;59403;47.456;19.120;2022-10-13T06:33:31;101237.22;;;9.75;100.00
71567;BME280;59403;47.456;19.120;2022-10-13T06:36:00;101242.72;;;9.83;100.00
71567;BME280;59403;47.456;19.120;2022-10-13T06:38:27;101243.16;;;9.88;100.00
71567;BME280;59403;47.456;19.120;2022-10-13T06:40:58;101249.72;;;9.94;100.00
71567;BME280;59403;47.456;19.120;2022-10-13T06:43:25;101242.25;;;9.99;100.00
71567;BME280;59403;47.456;19.120;2022-10-13T06:45:52;101250.47;;;10.05;100.00
71567;BME280;59403;47.456;19.120;2022-10-13T06:48:18;101248.44;;;10.09;100.00
71567;BME280;59403;47.456;19.120;2022-10-13T06:50:47;101246.09;;;10.15;100.00
71567;BME280;59403;47.456;19.120;2022-10-13T06:53:13;101244.84;;;10.19;100.00
71567;BME280;59403;47.456;19.120;2022-10-13T06:55:40;101244.31;;;10.25;100.00
71567;BME280;59403;47.456;19.120;2022-10-13T06:58:07;101248.38;;;10.29;100.00
71567;BME280;59403;47.456;19.120;2022-10-13T07:00:34;101238.22;;;10.35;100.00
71567;BME280;59403;47.456;19.120;2022-10-13T07:03:01;101236.84;;;10.40;100.00
71567;BME280;59403;47.456;19.120;2022-10-13T07:05:28;101243.13;;;10.49;100.00
71567;BME280;59403;47.456;19.120;2022-10-13T07:07:57;101240.06;;;10.53;100.00
71567;BME280;59403;47.456;19.120;2022-10-13T07:10:24;101242.31;;;10.58;100.00
71567;BME280;59403;47.456;19.120;2022-10-13T07:12:52;101236.06;;;10.68;99.88
71567;BME280;59403;47.456;19.120;2022-10-13T07:15:19;101238.28;;;10.73;99.24
71567;BME280;59403;47.456;19.120;2022-10-13T07:17:45;101233.41;;;10.78;99.02
71567;BME280;59403;47.456;19.120;2022-10-13T07:20:12;101234.16;;;10.89;98.36
71567;BME280;59403;47.456;19.120;2022-10-13T07:22:39;101228.12;;;10.97;95.87
71567;BME280;59403;47.456;19.120;2022-10-13T07:25:08;101235.81;;;11.00;94.74
71567;BME280;59403;47.456;19.120;2022-10-13T07:27:35;101229.97;;;11.06;94.29
71567;BME280;59403;47.456;19.120;2022-10-13T07:30:06;101232.72;;;11.14;93.70
71567;BME280;59403;47.456;19.120;2022-10-13T07:32:33;101229.53;;;11.20;91.38
71567;BME280;59403;47.456;19.120;2022-10-13T07:35:00;101230.34;;;11.30;87.42
71567;BME280;59403;47.456;19.120;2022-10-13T07:37:27;101229.50;;;11.29;88.62
71567;BME280;59403;47.456;19.120;2022-10-13T07:39:54;101234.56;;;11.32;87.60
71567;BME280;59403;47.456;19.120;2022-10-13T07:42:22;101230.34;;;11.30;87.96
71567;BME280;59403;47.456;19.120;2022-10-13T07:44:49;101235.94;;;11.27;89.13
71567;BME280;59403;47.456;19.120;2022-10-13T07:47:16;101236.09;;;11.25;89.29
71567;BME280;59403;47.456;19.120;2022-10-13T07:49:43;101238.31;;;11.30;88.81
71567;BME280;59403;47.456;19.120;2022-10-13T07:52:09;101235.22;;;11.44;84.09
71567;BME280;59403;47.456;19.120;2022-10-13T07:54:36;101235.22;;;11.54;85.80
71567;BME280;59403;47.456;19.120;2022-10-13T07:57:03;101234.34;;;11.63;84.15
71567;BME280;59403;47.456;19.120;2022-10-13T07:59:32;101234.78;;;11.68;83.95
71567;BME280;59403;47.456;19.120;2022-10-13T08:01:59;101231.16;;;11.69;84.13
71567;BME280;59403;47.456;19.120;2022-10-13T08:04:28;101237.53;;;11.85;82.07
71567;BME280;59403;47.456;19.120;2022-10-13T08:06:55;101232.63;;;11.90;82.62
71567;BME280;59403;47.456;19.120;2022-10-13T08:09:21;101234.53;;;12.07;81.74
71567;BME280;59403;47.456;19.120;2022-10-13T08:11:48;101229.16;;;12.26;80.21
71567;BME280;59403;47.456;19.120;2022-10-13T08:14:15;101229.69;;;12.30;80.75
71567;BME280;59403;47.456;19.120;2022-10-13T08:16:44;101232.59;;;12.36;81.31
71567;BME280;59403;47.456;19.120;2022-10-13T08:19:11;101225.69;;;12.43;80.99
71567;BME280;59403;47.456;19.120;2022-10-13T08:21:37;101219.87;;;12.57;80.79
71567;BME280;59403;47.456;19.120;2022-10-13T08:24:05;101227.88;;;12.75;78.29
71567;BME280;59403;47.456;19.120;2022-10-13T08:26:32;101218.59;;;12.97;73.81
71567;BME280;59403;47.456;19.120;2022-10-13T08:28:59;101210.75;;;13.05;73.64
71567;BME280;59403;47.456;19.120;2022-10-13T08:31:26;101215.44;;;13.11;74.89
71567;BME280;59403;47.456;19.120;2022-10-13T08:33:54;101208.75;;;13.07;75.10
71567;BME280;59403;47.456;19.120;2022-10-13T08:36:21;101205.50;;;13.13;74.63
71567;BME280;59403;47.456;19.120;2022-10-13T08:38:49;101214.75;;;13.26;74.85
71567;BME280;59403;47.456;19.120;2022-10-13T08:41:19;101201.22;;;13.20;75.39
71567;BME280;59403;47.456;19.120;2022-10-13T08:43:50;101205.78;;;13.27;75.54
71567;BME280;59403;47.456;19.120;2022-10-13T08:46:21;101206.69;;;13.36;71.68
71567;BME280;59403;47.456;19.120;2022-10-13T08:48:49;101207.66;;;13.60;70.42
71567;BME280;59403;47.456;19.120;2022-10-13T08:51:18;101208.12;;;13.56;72.47
71567;BME280;59403;47.456;19.120;2022-10-13T08:53:45;101205.84;;;13.61;72.50
71567;BME280;59403;47.456;19.120;2022-10-13T08:56:17;101213.41;;;13.74;69.51
71567;BME280;59403;47.456;19.120;2022-10-13T08:58:46;101202.09;;;13.72;71.07
71567;BME280;59403;47.456;19.120;2022-10-13T09:01:16;101196.25;;;13.68;70.74
71567;BME280;59403;47.456;19.120;2022-10-13T09:03:48;101200.13;;;13.82;71.31
71567;BME280;59403;47.456;19.120;2022-10-13T09:06:19;101197.38;;;13.91;69.79
71567;BME280;59403;47.456;19.120;2022-10-13T09:08:53;101195.00;;;14.14;67.83
71567;BME280;59403;47.456;19.120;2022-10-13T09:11:21;101187.22;;;14.28;67.20
71567;BME280;59403;47.456;19.120;2022-10-13T09:13:53;101190.56;;;14.30;68.49
71567;BME280;59403;47.456;19.120;2022-10-13T09:16:25;101183.94;;;14.34;67.69
71567;BME280;59403;47.456;19.120;2022-10-13T09:18:53;101181.63;;;14.39;68.18
71567;BME280;59403;47.456;19.120;2022-10-13T09:21:23;101187.00;;;14.55;65.58
71567;BME280;59403;47.456;19.120;2022-10-13T09:24:04;101192.31;;;14.55;65.85
71567;BME280;59403;47.456;19.120;2022-10-13T09:26:36;101191.34;;;14.72;66.76
71567;BME280;59403;47.456;19.120;2022-10-13T09:29:07;101185.72;;;14.84;64.43
71567;BME280;59403;47.456;19.120;2022-10-13T09:31:34;101183.56;;;14.95;65.61
71567;BME280;59403;47.456;19.120;2022-10-13T09:34:10;101176.37;;;15.04;65.95
71567;BME280;59403;47.456;19.120;2022-10-13T09:36:54;101180.56;;;15.14;66.65
71567;BME280;59403;47.456;19.120;2022-10-13T09:39:21;101174.56;;;15.20;66.69
71567;BME280;59403;47.456;19.120;2022-10-13T09:41:48;101178.56;;;15.40;66.16
71567;BME280;59403;47.456;19.120;2022-10-13T09:44:16;101179.22;;;15.58;64.82
71567;BME280;59403;47.456;19.120;2022-10-13T09:46:47;101162.84;;;15.61;64.96
71567;BME280;59403;47.456;19.120;2022-10-13T09:49:35;101172.50;;;15.62;63.69
71567;BME280;59403;47.456;19.120;2022-10-13T09:52:05;101172.28;;;15.80;61.03
71567;BME280;59403;47.456;19.120;2022-10-13T09:54:44;101170.66;;;15.71;61.67
71567;BME280;59403;47.456;19.120;2022-10-13T09:57:17;101160.84;;;15.63;61.52
71567;BME280;59403;47.456;19.120;2022-10-13T09:59:48;101162.13;;;15.67;60.98
71567;BME280;59403;47.456;19.120;2022-10-13T10:02:29;101154.00;;;15.61;62.87
71567;BME280;59403;47.456;19.120;2022-10-13T10:05:00;101156.31;;;15.64;63.88
71567;BME280;59403;47.456;19.120;2022-10-13T10:07:32;101155.28;;;15.73;64.59
71567;BME280;59403;47.456;19.120;2022-10-13T10:10:01;101160.09;;;15.85;63.61
71567;BME280;59403;47.456;19.120;2022-10-13T10:12:31;101149.53;;;16.00;64.28
71567;BME280;59403;47.456;19.120;2022-10-13T10:15:03;101147.91;;;16.22;62.57
71567;BME280;59403;47.456;19.120;2022-10-13T10:17:47;101137.41;;;16.20;62.78
71567;BME280;59403;47.456;19.120;2022-10-13T10:20:34;101140.12;;;16.12;65.45
71567;BME280;59403;47.456;19.120;2022-10-13T10:23:11;101139.72;;;16.23;62.56
71567;BME280;59403;47.456;19.120;2022-10-13T10:25:44;101132.72;;;16.22;63.62
71567;BME280;59403;47.456;19.120;2022-10-13T10:28:37;101127.63;;;16.35;62.67
71567;BME280;59403;47.456;19.120;2022-10-13T10:31:12;101127.06;;;16.48;64.64
71567;BME280;59403;47.456;19.120;2022-10-13T10:33:48;101136.00;;;16.32;63.74
71567;BME280;59403;47.456;19.120;2022-10-13T10:36:22;101123.78;;;16.38;63.62
71567;BME280;59403;47.456;19.120;2022-10-13T10:38:56;101122.56;;;16.48;63.36
71567;BME280;59403;47.456;19.120;2022-10-13T10:41:38;101117.63;;;16.60;65.07
71567;BME280;59403;47.456;19.120;2022-10-13T10:44:09;101112.56;;;16.65;63.51
71567;BME280;59403;47.456;19.120;2022-10-13T10:46:41;101110.63;;;16.81;63.22
71567;BME280;59403;47.456;19.120;2022-10-13T10:49:14;101111.19;;;16.91;64.43
71567;BME280;59403;47.456;19.120;2022-10-13T10:51:43;101109.28;;;17.00;62.69
71567;BME280;59403;47.456;19.120;2022-10-13T10:54:25;101099.97;;;17.11;62.25
71567;BME280;59403;47.456;19.120;2022-10-13T10:57:00;101100.50;;;17.29;61.16
71567;BME280;59403;47.456;19.120;2022-10-13T10:59:49;101101.09;;;17.31;59.78
71567;BME280;59403;47.456;19.120;2022-10-13T11:02:36;101094.53;;;17.19;62.12
71567;BME280;59403;47.456;19.120;2022-10-13T11:05:06;101086.62;;;17.25;62.24
71567;BME280;59403;47.456;19.120;2022-10-13T11:07:56;101083.66;;;17.35;61.14
71567;BME280;59403;47.456;19.120;2022-10-13T11:10:26;101086.16;;;17.36;60.88
71567;BME280;59403;47.456;19.120;2022-10-13T11:13:24;101076.19;;;17.45;61.27
71567;BME280;59403;47.456;19.120;2022-10-13T11:15:51;101067.16;;;17.46;59.72
71567;BME280;59403;47.456;19.120;2022-10-13T11:18:58;101067.53;;;17.57;60.26
71567;BME280;59403;47.456;19.120;2022-10-13T11:22:11;101062.75;;;17.53;60.43
71567;BME280;59403;47.456;19.120;2022-10-13T11:24:49;101058.97;;;17.47;60.59
71567;BME280;59403;47.456;19.120;2022-10-13T11:27:43;101056.00;;;17.57;60.18
71567;BME280;59403;47.456;19.120;2022-10-13T11:30:42;101062.06;;;17.65;60.01
71567;BME280;59403;47.456;19.120;2022-10-13T11:36:36;101049.31;;;17.67;62.11
71567;BME280;59403;47.456;19.120;2022-10-13T11:42:04;101036.84;;;17.74;61.01
71567;BME280;59403;47.456;19.120;2022-10-13T11:44:43;101041.84;;;17.77;60.65
71567;BME280;59403;47.456;19.120;2022-10-13T11:47:18;101039.25;;;17.84;59.34
71567;BME280;59403;47.456;19.120;2022-10-13T11:49:58;101035.50;;;17.99;58.82
71567;BME280;59403;47.456;19.120;2022-10-13T11:52:44;101027.56;;;17.91;59.82
71567;BME280;59403;47.456;19.120;2022-10-13T11:55:16;101016.84;;;17.91;60.81
71567;BME280;59403;47.456;19.120;2022-10-13T11:57:45;101014.62;;;17.95;60.45
71567;BME280;59403;47.456;19.120;2022-10-13T12:00:16;101011.41;;;17.85;58.81
71567;BME280;59403;47.456;19.120;2022-10-13T12:02:50;101014.16;;;17.91;61.47
71567;BME280;59403;47.456;19.120;2022-10-13T12:05:22;101016.28;;;17.96;61.52
71567;BME280;59403;47.456;19.120;2022-10-13T12:07:51;101003.09;;;17.94;60.52
71567;BME280;59403;47.456;19.120;2022-10-13T12:10:22;101000.03;;;17.97;60.77
71567;BME280;59403;47.456;19.120;2022-10-13T12:12:51;101002.69;;;17.97;60.82
71567;BME280;59403;47.456;19.120;2022-10-13T12:15:29;100998.81;;;18.00;60.95
71567;BME280;59403;47.456;19.120;2022-10-13T12:17:57;101003.53;;;17.98;61.36
71567;BME280;59403;47.456;19.120;2022-10-13T12:20:25;101002.06;;;17.95;60.90
71567;BME280;59403;47.456;19.120;2022-10-13T12:22:53;100998.38;;;17.96;60.88
71567;BME280;59403;47.456;19.120;2022-10-13T12:25:23;100987.72;;;18.03;60.87
71567;BME280;59403;47.456;19.120;2022-10-13T12:27:53;100993.19;;;17.95;60.60
71567;BME280;59403;47.456;19.120;2022-10-13T12:30:22;100987.00;;;17.94;60.78
71567;BME280;59403;47.456;19.120;2022-10-13T12:32:54;100986.37;;;17.92;60.99
71567;BME280;59403;47.456;19.120;2022-10-13T12:35:24;100983.69;;;17.92;60.19
71567;BME280;59403;47.456;19.120;2022-10-13T12:37:52;100978.25;;;17.86;61.00
71567;BME280;59403;47.456;19.120;2022-10-13T12:40:20;100982.97;;;17.84;61.80
71567;BME280;59403;47.456;19.120;2022-10-13T12:42:47;100976.56;;;17.85;61.81
71567;BME280;59403;47.456;19.120;2022-10-13T12:45:16;100973.25;;;17.83;62.37
71567;BME280;59403;47.456;19.120;2022-10-13T12:47:49;100979.66;;;17.82;63.06
71567;BME280;59403;47.456;19.120;2022-10-13T12:50:27;100972.91;;;17.86;63.24
71567;BME280;59403;47.456;19.120;2022-10-13T12:53:09;100975.38;;;17.87;62.27
71567;BME280;59403;47.456;19.120;2022-10-13T12:55:46;100971.59;;;17.82;62.83
71567;BME280;59403;47.456;19.120;2022-10-13T12:58:19;100972.50;;;17.89;61.62
71567;BME280;59403;47.456;19.120;2022-10-13T13:00:59;100964.47;;;17.89;62.17
71567;BME280;59403;47.456;19.120;2022-10-13T13:03:30;100963.81;;;17.87;62.88
71567;BME280;59403;47.456;19.120;2022-10-13T13:06:22;100958.84;;;17.84;63.11
71567;BME280;59403;47.456;19.120;2022-10-13T13:12:05;100959.78;;;17.76;62.68
71567;BME280;59403;47.456;19.120;2022-10-13T13:14:36;100961.81;;;17.74;62.27